Bow Clipper — LAUU4 — position and weather

sailwx.info

Track history (hours):
 
Tides and Currents Weather Stations Pressure Air Temp Water Temp Dewpoint Dewpoint Depression Visibility Wind Speed Wind Dir Waves Ship Positions

Bow Clipper

Last reported at 2017-Feb-23 19:33 UTC. Time now 2017-Feb-24 17:40 UTC.
Position S 23°58' W 046°18'.

Length 188 m; draft 6.1 m.

Type: Ship (hazmat cat B). MMSI: 258946991.

Date/timePositionNaut miles runAvg speedWind from/ knotsBaromVisibWave heightAir tempDewpointWater temp
2017-Feb-23 19:33S 23°58' W 046°18'8 7.5
2017-Feb-23 18:33S 24°04' W 046°22'8 8.2
2017-Feb-23 17:33S 24°12' W 046°19'1 0.4
2017-Feb-23 16:22S 24°12' W 046°19'0 0.0
2017-Feb-23 15:28S 24°12' W 046°19'0 0.0
2017-Feb-23 14:22S 24°12' W 046°19'0 0.0
2017-Feb-23 13:22S 24°12' W 046°19'0 0.0
2017-Feb-23 12:28S 24°12' W 046°19'0 0.1
2017-Feb-23 11:28S 24°12' W 046°19'0 0.1
2017-Feb-23 10:22S 24°13' W 046°19'0 0.0
2017-Feb-23 09:28S 24°13' W 046°19'0 0.0
2017-Feb-23 08:28S 24°13' W 046°19'0 0.0
2017-Feb-23 07:28S 24°13' W 046°19'0 0.0
2017-Feb-23 06:10S 24°13' W 046°19'0 0.0
2017-Feb-23 05:22S 24°13' W 046°19'0 0.0
2017-Feb-23 04:22S 24°13' W 046°19'0 0.0
2017-Feb-23 03:22S 24°13' W 046°19'0 0.0
2017-Feb-23 02:22S 24°13' W 046°19'0 0.0
2017-Feb-23 01:22S 24°12' W 046°19'0 0.0
2017-Feb-23 00:28S 24°12' W 046°19'0 0.0
2017-Feb-22 23:22S 24°12' W 046°19'0 0.0
2017-Feb-22 22:28S 24°12' W 046°19'0 0.0
2017-Feb-22 21:28S 24°12' W 046°19'0 0.0
2017-Feb-22 20:22S 24°12' W 046°19'0 0.0
2017-Feb-22 19:22S 24°12' W 046°19'0 0.0
2017-Feb-22 18:28S 24°12' W 046°19'0 0.0
2017-Feb-22 17:16S 24°12' W 046°19'0 0.0
2017-Feb-22 16:28S 24°12' W 046°19'0 0.0
2017-Feb-22 15:28S 24°12' W 046°19'0 0.0
2017-Feb-22 14:28S 24°12' W 046°19'0 0.0
2017-Feb-22 13:28S 24°12' W 046°19'0 0.1
2017-Feb-22 12:28S 24°13' W 046°19'0 0.0
2017-Feb-22 11:16S 24°13' W 046°19'0 0.0
2017-Feb-22 10:22S 24°13' W 046°19'0 0.0
2017-Feb-22 09:28S 24°13' W 046°19'0 0.0
2017-Feb-22 08:10S 24°13' W 046°19'0 0.0
2017-Feb-22 07:22S 24°13' W 046°19'0 0.0
2017-Feb-22 06:04S 24°13' W 046°19'0 0.0
2017-Feb-22 05:28S 24°13' W 046°19'0 0.0
2017-Feb-22 04:22S 24°13' W 046°19'0 0.0
2017-Feb-22 03:22S 24°13' W 046°19'0 0.0
2017-Feb-22 02:16S 24°12' W 046°19'0 0.0
2017-Feb-22 01:22S 24°12' W 046°19'0 0.0
2017-Feb-22 00:28S 24°12' W 046°19'0 0.0
2017-Feb-21 23:28S 24°12' W 046°19'0 0.0
2017-Feb-21 22:22S 24°12' W 046°19'0 0.0
2017-Feb-21 21:28S 24°12' W 046°19'0 0.0
2017-Feb-21 20:22S 24°12' W 046°19'0 0.0
2017-Feb-21 19:04S 24°12' W 046°19'0 0.0
2017-Feb-21 18:22S 24°12' W 046°19'0 0.1
2017-Feb-21 17:16S 24°12' W 046°19'0 0.1
2017-Feb-21 16:25S 24°12' W 046°19'0 0.0
2017-Feb-21 15:10S 24°12' W 046°19'0 0.0
2017-Feb-21 14:28S 24°12' W 046°19'0 0.0
2017-Feb-21 13:28S 24°12' W 046°19'0 0.0
2017-Feb-21 12:28S 24°12' W 046°19'0 0.0
2017-Feb-21 11:28S 24°12' W 046°19'0 0.0
2017-Feb-21 09:22S 24°12' W 046°18'0 0.0
2017-Feb-21 08:28S 24°13' W 046°19'0 0.1
2017-Feb-21 07:28S 24°12' W 046°19'0 0.0
2017-Feb-21 06:28S 24°12' W 046°19'0 0.1
2017-Feb-21 05:28S 24°12' W 046°19'0 0.0
2017-Feb-21 04:28S 24°12' W 046°19'0 0.0
2017-Feb-21 03:22S 24°12' W 046°19'0 0.0
2017-Feb-21 02:22S 24°12' W 046°19'0 0.0
2017-Feb-21 01:22S 24°12' W 046°19'0 0.0
2017-Feb-21 00:28S 24°12' W 046°19'0 0.0
2017-Feb-20 22:28S 24°12' W 046°18'0 0.0
2017-Feb-20 21:28S 24°12' W 046°18'0 0.1
2017-Feb-20 20:28S 24°12' W 046°18'0 0.0
2017-Feb-20 19:33S 24°12' W 046°18'0 0.0
2017-Feb-20 18:33S 24°12' W 046°18'3 3.5
2017-Feb-20 17:33S 24°15' W 046°20'1212.2
2017-Feb-20 16:33S 24°23' W 046°10'  
Track history (hours):
 
Tides and Currents Weather Stations Pressure Air Temp Water Temp Dewpoint Dewpoint Depression Visibility Wind Speed Wind Dir Waves Ship Positions

Bow Clipper

Last reported at 2017-Feb-23 19:33 UTC. Time now 2017-Feb-24 17:40 UTC.
Position S 23°58' W 046°18'.

Length 188 m; draft 6.1 m.

Type: Ship (hazmat cat B). MMSI: 258946991.

Date/timePositionNaut miles runAvg speedWind from/ knotsBaromVisibWave heightAir tempDewpointWater temp
2017-Feb-23 19:33S 23°58' W 046°18'8 7.5
2017-Feb-23 18:33S 24°04' W 046°22'8 8.2
2017-Feb-23 17:33S 24°12' W 046°19'1 0.4
2017-Feb-23 16:22S 24°12' W 046°19'0 0.0
2017-Feb-23 15:28S 24°12' W 046°19'0 0.0
2017-Feb-23 14:22S 24°12' W 046°19'0 0.0
2017-Feb-23 13:22S 24°12' W 046°19'0 0.0
2017-Feb-23 12:28S 24°12' W 046°19'0 0.1
2017-Feb-23 11:28S 24°12' W 046°19'0 0.1
2017-Feb-23 10:22S 24°13' W 046°19'0 0.0
2017-Feb-23 09:28S 24°13' W 046°19'0 0.0
2017-Feb-23 08:28S 24°13' W 046°19'0 0.0
2017-Feb-23 07:28S 24°13' W 046°19'0 0.0
2017-Feb-23 06:10S 24°13' W 046°19'0 0.0
2017-Feb-23 05:22S 24°13' W 046°19'0 0.0
2017-Feb-23 04:22S 24°13' W 046°19'0 0.0
2017-Feb-23 03:22S 24°13' W 046°19'0 0.0
2017-Feb-23 02:22S 24°13' W 046°19'0 0.0
2017-Feb-23 01:22S 24°12' W 046°19'0 0.0
2017-Feb-23 00:28S 24°12' W 046°19'0 0.0
2017-Feb-22 23:22S 24°12' W 046°19'0 0.0
2017-Feb-22 22:28S 24°12' W 046°19'0 0.0
2017-Feb-22 21:28S 24°12' W 046°19'0 0.0
2017-Feb-22 20:22S 24°12' W 046°19'0 0.0
2017-Feb-22 19:22S 24°12' W 046°19'0 0.0
2017-Feb-22 18:28S 24°12' W 046°19'0 0.0
2017-Feb-22 17:16S 24°12' W 046°19'0 0.0
2017-Feb-22 16:28S 24°12' W 046°19'0 0.0
2017-Feb-22 15:28S 24°12' W 046°19'0 0.0
2017-Feb-22 14:28S 24°12' W 046°19'0 0.0
2017-Feb-22 13:28S 24°12' W 046°19'0 0.1
2017-Feb-22 12:28S 24°13' W 046°19'0 0.0
2017-Feb-22 11:16S 24°13' W 046°19'0 0.0
2017-Feb-22 10:22S 24°13' W 046°19'0 0.0
2017-Feb-22 09:28S 24°13' W 046°19'0 0.0
2017-Feb-22 08:10S 24°13' W 046°19'0 0.0
2017-Feb-22 07:22S 24°13' W 046°19'0 0.0
2017-Feb-22 06:04S 24°13' W 046°19'0 0.0
2017-Feb-22 05:28S 24°13' W 046°19'0 0.0
2017-Feb-22 04:22S 24°13' W 046°19'0 0.0
2017-Feb-22 03:22S 24°13' W 046°19'0 0.0
2017-Feb-22 02:16S 24°12' W 046°19'0 0.0
2017-Feb-22 01:22S 24°12' W 046°19'0 0.0
2017-Feb-22 00:28S 24°12' W 046°19'0 0.0
2017-Feb-21 23:28S 24°12' W 046°19'0 0.0
2017-Feb-21 22:22S 24°12' W 046°19'0 0.0
2017-Feb-21 21:28S 24°12' W 046°19'0 0.0
2017-Feb-21 20:22S 24°12' W 046°19'0 0.0
2017-Feb-21 19:04S 24°12' W 046°19'0 0.0
2017-Feb-21 18:22S 24°12' W 046°19'0 0.1
2017-Feb-21 17:16S 24°12' W 046°19'0 0.1
2017-Feb-21 16:25S 24°12' W 046°19'0 0.0
2017-Feb-21 15:10S 24°12' W 046°19'0 0.0
2017-Feb-21 14:28S 24°12' W 046°19'0 0.0
2017-Feb-21 13:28S 24°12' W 046°19'0 0.0
2017-Feb-21 12:28S 24°12' W 046°19'0 0.0
2017-Feb-21 11:28S 24°12' W 046°19'0 0.0
2017-Feb-21 09:22S 24°12' W 046°18'0 0.0
2017-Feb-21 08:28S 24°13' W 046°19'0 0.1
2017-Feb-21 07:28S 24°12' W 046°19'0 0.0
2017-Feb-21 06:28S 24°12' W 046°19'0 0.1
2017-Feb-21 05:28S 24°12' W 046°19'0 0.0
2017-Feb-21 04:28S 24°12' W 046°19'0 0.0
2017-Feb-21 03:22S 24°12' W 046°19'0 0.0
2017-Feb-21 02:22S 24°12' W 046°19'0 0.0
2017-Feb-21 01:22S 24°12' W 046°19'0 0.0
2017-Feb-21 00:28S 24°12' W 046°19'0 0.0
2017-Feb-20 22:28S 24°12' W 046°18'0 0.0
2017-Feb-20 21:28S 24°12' W 046°18'0 0.1
2017-Feb-20 20:28S 24°12' W 046°18'0 0.0
2017-Feb-20 19:33S 24°12' W 046°18'0 0.0
2017-Feb-20 18:33S 24°12' W 046°18'3 3.5
2017-Feb-20 17:33S 24°15' W 046°20'1212.2
2017-Feb-20 16:33S 24°23' W 046°10'  

Dump ship's entire track history